Time;durP1;ratioP1;P1;durP2;ratioP2;P2;SDS_P1;SDS_P2;PMS_P1;PMS_P2;Temp;Humidity;BMP_temperature;BMP_pressure;BME280_temperature;BME280_humidity;BME280_pressure;Samples;Min_cycle;Max_cycle;Signal;HPM_P1;HPM_P2
2023/04/01 00:00:26;;;;;;;12.43;7.20;;;;;;;;;;5051867;28;20048;-84
2023/04/01 00:03:11;;;;;;;13.75;7.95;;;;;;;;;;5052190;28;20095;-84
2023/04/01 00:05:57;;;;;;;10.30;7.40;;;;;;;;;;5053300;28;20516;-84
2023/04/01 00:08:42;;;;;;;11.90;7.72;;;;;;;;;;5039027;28;20059;-85
2023/04/01 00:11:27;;;;;;;11.75;7.70;;;;;;;;;;5051534;28;20163;-84
2023/04/01 00:14:12;;;;;;;12.35;8.07;;;;;;;;;;5053091;28;20555;-85
2023/04/01 00:16:57;;;;;;;14.50;7.60;;;;;;;;;;5065880;28;20112;-84
2023/04/01 00:19:41;;;;;;;11.45;8.30;;;;;;;;;;5065747;28;20508;-85
2023/04/01 00:22:26;;;;;;;14.05;8.18;;;;;;;;;;5040402;28;20108;-84
2023/04/01 00:25:11;;;;;;;10.70;7.35;;;;;;;;;;5052699;28;20048;-84
2023/04/01 00:27:56;;;;;;;12.10;7.32;;;;;;;;;;5052883;28;20047;-84
2023/04/01 00:30:40;;;;;;;12.15;8.10;;;;;;;;;;5065245;28;20040;-85
2023/04/01 00:33:27;;;;;;;12.55;7.65;;;;;;;;;;5065392;28;20501;-84
2023/04/01 00:36:17;;;;;;;11.93;7.75;;;;;;;;;;5051041;28;20083;-84
2023/04/01 00:39:01;;;;;;;14.00;8.45;;;;;;;;;;5052336;28;20409;-85
2023/04/01 00:41:46;;;;;;;10.85;8.00;;;;;;;;;;5052571;28;20401;-85
2023/04/01 00:44:33;;;;;;;12.60;7.72;;;9.70;99.90;;;;;;5051845;28;20040;-85
2023/04/01 00:47:18;;;;;;;13.95;7.95;;;;;;;;;;5051435;28;20087;-87
2023/04/01 00:50:02;;;;;;;11.40;7.82;;;;;;;;;;5039758;28;20409;-85
2023/04/01 00:52:47;;;;;;;12.70;7.93;;;;;;;;;;5052188;28;20044;-84
2023/04/01 00:55:35;;;;;;;15.55;7.85;;;9.80;99.90;;;;;;5051728;28;20530;-85
2023/04/01 00:58:20;;;;;;;11.45;7.85;;;;;;;;;;5051951;28;20512;-88
2023/04/01 01:01:06;;;;;;;11.77;7.68;;;;;;;;;;5052069;28;20047;-86
2023/04/01 01:03:50;;;;;;;12.75;7.63;;;;;;;;;;5052167;28;20114;-84
2023/04/01 01:06:50;;;;;;;13.88;8.23;;;9.70;99.90;;;;;;5051449;28;20079;-85
2023/04/01 01:10:07;;;;;;;12.57;8.10;;;9.70;99.90;;;;;;5050482;28;20040;-86
2023/04/01 01:13:12;;;;;;;16.85;9.25;;;;;;;;;;5045152;28;20055;-85
2023/04/01 01:15:56;;;;;;;;;;;;;;;;;;5042881;28;20052;-86
2023/04/01 01:18:41;;;;;;;17.83;9.40;;;;;;;;;;5064275;28;20430;-85
2023/04/01 01:21:44;;;;;;;14.20;8.60;;;;;;;;;;5051586;28;20397;-85
2023/04/01 01:24:51;;;;;;;15.93;8.52;;;9.70;99.90;;;;;;5041110;28;20068;-84
2023/04/01 01:27:40;;;;;;;14.98;9.60;;;9.70;99.90;;;;;;5064380;28;20512;-85
2023/04/01 01:30:25;;;;;;;14.82;8.65;;;;;;;;;;5050355;28;20393;-88
2023/04/01 01:33:25;;;;;;;13.73;7.78;;;;;;;;;;5039006;28;20040;-85
2023/04/01 01:36:13;;;;;;;13.57;8.15;;;9.70;99.90;;;;;;5050500;28;20032;-84
2023/04/01 01:38:58;;;;;;;16.90;8.90;;;;;;;;;;5051567;28;20051;-84
2023/04/01 01:41:44;;;;;;;16.90;9.25;;;9.70;99.90;;;;;;5050106;28;20048;-84
2023/04/01 01:44:30;;;;;;;13.95;8.60;;;;;;;;;;5050812;28;20071;-85
2023/04/01 01:47:16;;;;;;;11.80;7.43;;;;;;;;;;5051547;28;20040;-85
2023/04/01 01:50:01;;;;;;;11.95;7.80;;;;;;;;;;5037746;28;20052;-84
2023/04/01 01:52:45;;;;;;;13.95;7.68;;;;;;;;;;5049718;28;20500;-86
2023/04/01 01:55:41;;;;;;;15.00;8.15;;;9.70;99.90;;;;;;5063792;28;20091;-87
2023/04/01 01:58:35;;;;;;;15.13;7.97;;;9.70;99.90;;;;;;5037767;28;20090;-84
2023/04/01 02:01:25;;;;;;;18.05;7.82;;;9.70;99.90;;;;;;5050254;28;20095;-84
2023/04/01 02:04:11;;;;;;;13.55;7.72;;;9.70;99.90;;;;;;5051184;28;20563;-84
2023/04/01 02:07:02;;;;;;;10.80;7.53;;;;;;;;;;5049639;28;20393;-84
2023/04/01 02:09:47;;;;;;;15.32;7.50;;;;;;;;;;5050632;28;20624;-84
2023/04/01 02:12:32;;;;;;;14.75;7.82;;;;;;;;;;5063723;28;20398;-87
2023/04/01 02:15:19;;;;;;;13.43;7.30;;;9.70;99.90;;;;;;5052422;28;20036;-84
2023/04/01 02:18:04;;;;;;;12.00;7.00;;;;;;;;;;5051191;28;20112;-84
2023/04/01 02:20:50;;;;;;;14.15;6.75;;;;;;;;;;5050718;28;20500;-85
2023/04/01 02:23:36;;;;;;;13.13;6.60;;;;;;;;;;5039597;28;20091;-86
2023/04/01 02:26:21;;;;;;;11.57;6.38;;;;;;;;;;5051163;28;20512;-85
2023/04/01 02:29:06;;;;;;;15.50;7.60;;;;;;;;;;5050932;28;20493;-84
2023/04/01 02:31:52;;;;;;;11.98;6.60;;;;;;;;;;5049574;28;20044;-85
2023/04/01 02:34:37;;;;;;;9.93;5.75;;;;;;;;;;5038952;28;20039;-85
2023/04/01 02:37:21;;;;;;;11.43;5.57;;;;;;;;;;5050777;28;20082;-85
2023/04/01 02:40:07;;;;;;;11.48;5.97;;;;;;;;;;5049853;28;20044;-85
2023/04/01 02:42:53;;;;;;;13.52;7.03;;;;;;;;;;5063618;28;20056;-85
2023/04/01 02:45:38;;;;;;;11.23;4.25;;;;;;;;;;5049306;28;20480;-85
2023/04/01 02:48:22;;;;;;;6.10;3.10;;;;;;;;;;5049933;28;20055;-85
2023/04/01 02:51:07;;;;;;;7.45;3.80;;;;;;;;;;5050746;28;20045;-87
2023/04/01 02:53:51;;;;;;;7.15;3.90;;;;;;;;;;5050352;28;20040;-88
2023/04/01 02:56:36;;;;;;;5.45;3.28;;;;;;;;;;5037015;28;20079;-87
2023/04/01 02:59:20;;;;;;;6.32;3.15;;;;;;;;;;5049603;28;20060;-87
2023/04/01 03:02:05;;;;;;;6.05;2.95;;;;;;;;;;5054596;28;20044;-87
2023/04/01 03:04:50;;;;;;;6.13;2.50;;;;;;;;;;5052827;28;20503;-86
2023/04/01 03:07:34;;;;;;;4.43;1.60;;;;;;;;;;5053481;28;20043;-87
2023/04/01 03:10:19;;;;;;;3.78;1.88;;;;;;;;;;5053373;28;20465;-87
2023/04/01 03:13:03;;;;;;;6.60;1.90;;;;;;;;;;5053518;28;20056;-86
2023/04/01 03:15:48;;;;;;;4.57;1.58;;;;;;;;;;5066922;28;20045;-86
2023/04/01 03:18:32;;;;;;;3.88;1.73;;;;;;;;;;5052941;28;20044;-87
2023/04/01 03:21:18;;;;;;;3.85;1.40;;;;;;;;;;5053993;28;20140;-86
2023/04/01 03:24:03;;;;;;;3.67;1.70;;;;;;;;;;5040716;28;20103;-85
2023/04/01 03:26:48;;;;;;;2.80;1.33;;;;;;;;;;5052384;28;20103;-86
2023/04/01 03:29:32;;;;;;;5.22;1.98;;;;;;;;;;5066950;28;20044;-85
2023/04/01 03:32:17;;;;;;;4.15;1.80;;;;;;;;;;5052777;28;20128;-86
2023/04/01 03:35:02;;;;;;;4.05;2.03;;;;;;;;;;5052222;28;20882;-86
2023/04/01 03:37:46;;;;;;;6.63;3.25;;;;;;;;;;5052393;28;20392;-86
2023/04/01 03:40:32;;;;;;;7.75;3.83;;;;;;;;;;5053639;28;20044;-86
2023/04/01 03:43:17;;;;;;;10.68;5.22;;;;;;;;;;5053812;28;20060;-86
2023/04/01 03:46:02;;;;;;;14.93;6.18;;;;;;;;;;5039208;28;20036;-86
2023/04/01 03:48:46;;;;;;;14.73;6.55;;;;;;;;;;5051912;28;20114;-86
2023/04/01 03:51:31;;;;;;;16.83;7.43;;;;;;;;;;5052592;28;20071;-86
2023/04/01 03:54:16;;;;;;;18.58;8.55;;;;;;;;;;5052366;28;20036;-86
2023/04/01 03:57:01;;;;;;;21.00;9.32;;;;;;;;;;5051848;28;20125;-86
2023/04/01 03:59:46;;;;;;;21.17;8.57;;;;;;;;;;5041212;28;20048;-87
2023/04/01 04:02:30;;;;;;;20.90;9.10;;;;;;;;;;5053181;28;20120;-85
2023/04/01 04:05:15;;;;;;;17.05;8.95;;;;;;;;;;5053417;28;20167;-86
2023/04/01 04:07:59;;;;;;;21.05;9.27;;;;;;;;;;5052534;28;20036;-85
2023/04/01 04:10:44;;;;;;;18.13;8.20;;;;;;;;;;5051638;28;20397;-85
2023/04/01 04:13:28;;;;;;;19.23;8.63;;;;;;;;;;5051707;28;20036;-85
2023/04/01 04:16:12;;;;;;;19.08;8.40;;;;;;;;;;5052130;28;20040;-85
2023/04/01 04:18:57;;;;;;;17.25;8.45;;;;;;;;;;5039592;28;20052;-86
2023/04/01 04:21:42;;;;;;;16.80;8.02;;;;;;;;;;5052990;28;20501;-85
2023/04/01 04:24:27;;;;;;;15.07;7.40;;;;;;;;;;5065599;28;20095;-86
2023/04/01 04:27:11;;;;;;;15.35;8.02;;;;;;;;;;5052361;28;20039;-90
2023/04/01 04:29:56;;;;;;;17.85;8.15;;;;;;;;;;5052135;28;20094;-86
2023/04/01 04:32:41;;;;;;;17.63;7.55;;;;;;;;;;5051709;28;20048;-87
2023/04/01 04:35:26;;;;;;;16.40;6.80;;;;;;;;;;5051686;28;20036;-87
2023/04/01 04:38:14;;;;;;;19.35;8.07;;;;;;;;;;5052609;28;20064;-87
2023/04/01 04:41:03;;;;;;;17.30;7.88;;;;;;;;;;5038619;28;20102;-86
2023/04/01 04:43:52;;;;;;;18.65;8.15;;;;;;;;;;5052483;28;20460;-86
2023/04/01 04:46:39;;;;;;;19.90;9.13;;;;;;;;;;5051489;28;20420;-87
2023/04/01 04:49:23;;;;;;;18.02;8.52;;;;;;;;;;5038056;28;20039;-88
2023/04/01 04:52:08;;;;;;;20.50;8.13;;;;;;;;;;5040478;28;20078;-88
2023/04/01 04:55:01;;;;;;;17.38;7.90;;;;;;;;;;5044580;28;20040;-92
2023/04/01 04:57:46;;;;;;;21.20;7.95;;;;;;;;;;5039806;28;20040;-88
2023/04/01 05:00:30;;;;;;;19.42;8.98;;;;;;;;;;5036661;28;20504;-87
2023/04/01 05:03:15;;;;;;;18.55;8.15;;;;;;;;;;5038652;28;20090;-87
2023/04/01 05:05:59;;;;;;;20.73;8.85;;;;;;;;;;5034068;28;20041;-87
2023/04/01 05:08:44;;;;;;;22.38;9.00;;;;;;;;;;5032218;28;20176;-86
2023/04/01 05:11:29;;;;;;;17.73;8.60;;;;;;;;;;5033712;28;20136;-87
2023/04/01 05:14:14;;;;;;;19.63;9.57;;;;;;;;;;5045697;28;20060;-87
2023/04/01 05:16:59;;;;;;;24.27;10.60;;;;;;;;;;5046074;28;20409;-87
2023/04/01 05:19:44;;;;;;;23.20;10.07;;;;;;;;;;5047710;28;20055;-89
2023/04/01 05:22:29;;;;;;;25.00;9.70;;;;;;;;;;5044425;28;20131;-87
2023/04/01 05:25:14;;;;;;;23.48;10.63;;;;;;;;;;5036044;28;20037;-88
2023/04/01 05:27:58;;;;;;;22.20;10.27;;;;;;;;;;5052657;28;20040;-89
2023/04/01 05:30:44;;;;;;;25.17;10.40;;;;;;;;;;5049786;28;20091;-88
2023/04/01 05:33:31;;;;;;;22.92;10.10;;;;;;;;;;5038060;28;20036;-88
2023/04/01 05:36:16;;;;;;;24.08;10.13;;;;;;;;;;5041138;28;20044;-88
2023/04/01 05:39:01;;;;;;;24.77;10.68;;;;;;;;;;5050092;28;20051;-90
2023/04/01 05:41:45;;;;;;;18.38;8.50;;;;;;;;;;5050644;28;20048;-88
2023/04/01 05:44:37;;;;;;;17.77;8.52;;;;;;;;;;5035564;28;20096;-88
2023/04/01 05:47:23;;;;;;;18.65;9.00;;;;;;;;;;5035896;28;20059;-89
2023/04/01 05:50:11;;;;;;;18.90;8.85;;;;;;;;;;5048401;28;20504;-88
2023/04/01 05:52:55;;;;;;;18.05;7.78;;;;;;;;;;5036389;28;20044;-89
2023/04/01 05:55:48;;;;;;;17.13;7.93;;;;;;;;;;5035227;28;20087;-89
2023/04/01 05:58:32;;;;;;;20.08;8.05;;;;;;;;;;5037925;28;20060;-91
2023/04/01 06:01:19;;;;;;;15.27;6.90;;;;;;;;;;5036088;28;20068;-87
2023/04/01 06:04:07;;;;;;;16.08;7.95;;;;;;;;;;5045265;28;20068;-91
2023/04/01 06:06:51;;;;;;;12.10;6.28;;;;;;;;;;5046106;28;20535;-88
2023/04/01 06:09:38;;;;;;;12.38;6.22;;;;;;;;;;5046634;28;20083;-87
2023/04/01 06:30:51;;;;;;;17.25;6.90;;;;;;;;;;4936522;29;20078;-93
2023/04/01 06:33:32;;;;;;;;;;;;;;;;;;;;;
2023/04/01 06:36:23;;;;;;;21.23;9.43;;;;;;;;;;4993199;28;20389;-88
2023/04/01 06:39:18;;;;;;;20.67;10.35;;;;;;;;;;5012745;28;20110;-88
2023/04/01 06:42:14;;;;;;;26.27;12.32;;;;;;;;;;5012560;28;20045;-87
2023/04/01 06:44:59;;;;;;;29.48;13.35;;;;;;;;;;5008030;28;20056;-87
2023/04/01 06:47:46;;;;;;;33.92;14.52;;;;;;;;;;5003167;28;20513;-87
2023/04/01 06:50:41;;;;;;;25.50;12.27;;;;;;;;;;5015943;28;20068;-87
2023/04/01 07:08:26;;;;;;;31.80;15.20;;;;;;;;;;5348403;23;20140;-87
2023/04/01 07:11:22;;;;;;;31.10;14.27;;;9.70;99.90;;;;;;5004737;28;20041;-87
2023/04/01 07:14:14;;;;;;;29.83;14.35;;;;;;;;;;4998674;28;20097;-88
2023/04/01 07:17:06;;;;;;;28.95;13.68;;;;;;;;;;4995090;28;20049;-87
2023/04/01 07:19:54;;;;;;;34.67;14.80;;;;;;;;;;5003060;28;20097;-87
2023/04/01 07:22:49;;;;;;;27.75;13.40;;;9.80;99.90;;;;;;5010830;28;20445;-87
2023/04/01 07:25:36;;;;;;;28.60;14.43;;;;;;;;;;4993794;28;20032;-87
2023/04/01 07:28:22;;;;;;;39.90;16.25;;;;;;;;;;5003316;28;20161;-88
2023/04/01 07:31:08;;;;;;;30.77;15.15;;;;;;;;;;4991581;28;20124;-88
2023/04/01 07:34:24;;;;;;;31.67;14.38;;;9.90;99.90;;;;;;5007274;28;20544;-87
2023/04/01 07:37:20;;;;;;;34.92;15.25;;;;;;;;;;5008120;28;20029;-88
2023/04/01 07:40:23;;;;;;;31.58;13.48;;;;;;;;;;5004160;28;20060;-86
2023/04/01 07:43:14;;;;;;;30.47;14.63;;;;;;;;;;5012379;28;20152;-87
2023/04/01 07:46:15;;;;;;;31.08;13.75;;;;;;;;;;5002155;28;20546;-88
2023/04/01 07:49:33;;;;;;;35.58;14.93;;;10.00;99.90;;;;;;5011033;28;20347;-88
2023/04/01 07:52:26;;;;;;;40.05;15.20;;;;;;;;;;5004422;28;20153;-92
2023/04/01 07:55:15;;;;;;;35.47;15.48;;;;;;;;;;4999833;28;20065;-87
2023/04/01 07:58:03;;;;;;;29.20;14.80;;;;;;;;;;4995275;28;20041;-87
2023/04/01 08:00:59;;;;;;;32.10;15.45;;;;;;;;;;5009301;28;20104;-88
2023/04/01 08:03:51;;;;;;;32.15;15.70;;;;;;;;;;4988909;28;20450;-88
2023/04/01 08:07:02;;;;;;;27.98;14.45;;;;;;;;;;5006273;28;20057;-88
2023/04/01 08:10:10;;;;;;;25.65;14.50;;;;;;;;;;4996281;28;20169;-89
2023/04/01 08:13:21;;;;;;;28.40;14.02;;;;;;;;;;5000609;28;20489;-88
2023/04/01 08:16:06;;;;;;;30.38;14.70;;;;;;;;;;4993045;28;20072;-88
2023/04/01 08:18:54;;;;;;;23.45;13.60;;;;;;;;;;4992932;28;20093;-88
2023/04/01 08:21:43;;;;;;;21.10;13.80;;;;;;;;;;4992153;28;20045;-89
2023/04/01 08:24:33;;;;;;;22.60;13.32;;;;;;;;;;4992295;28;20068;-89
2023/04/01 08:27:22;;;;;;;24.00;13.77;;;;;;;;;;4992964;28;20042;-88
2023/04/01 08:30:22;;;;;;;24.13;14.07;;;;;;;;;;4993677;28;20049;-89
2023/04/01 08:33:14;;;;;;;24.52;13.90;;;;;;;;;;4992739;28;20081;-89
2023/04/01 08:36:05;;;;;;;21.98;13.63;;;;;;;;;;5000693;28;20088;-90
2023/04/01 08:38:53;;;;;;;22.98;13.10;;;;;;;;;;5007969;28;20093;-89
2023/04/01 08:41:59;;;;;;;19.13;12.20;;;10.70;99.90;;;;;;4991904;28;20121;-89
2023/04/01 08:44:50;;;;;;;22.92;11.05;;;;;;;;;;4990433;28;20454;-88
2023/04/01 08:47:37;;;;;;;16.60;10.43;;;;;;;;;;5005234;28;20789;-89
2023/04/01 08:50:37;;;;;;;18.08;10.93;;;;;;;;;;5005891;28;20044;-88
2023/04/01 08:53:29;;;;;;;14.13;9.27;;;;;;;;;;4992246;28;20072;-89
2023/04/01 08:56:29;;;;;;;18.95;10.40;;;;;;;;;;4992657;28;20057;-89
2023/04/01 08:59:20;;;;;;;18.67;10.65;;;;;;;;;;5009271;28;20117;-88
2023/04/01 09:02:10;;;;;;;19.98;10.70;;;;;;;;;;5002360;28;20104;-87
2023/04/01 09:05:07;;;;;;;21.73;11.27;;;;;;;;;;4994965;28;20041;-89
2023/04/01 09:07:59;;;;;;;20.50;11.52;;;;;;;;;;4994609;28;20071;-88
2023/04/01 09:11:01;;;;;;;19.90;11.43;;;;;;;;;;5010118;28;20084;-89
2023/04/01 09:14:22;;;;;;;22.95;13.07;;;10.50;99.90;;;;;;4993638;28;20041;-89
2023/04/01 09:17:45;;;;;;;21.33;12.05;;;10.50;99.90;;;;;;5006609;28;20092;-89
2023/04/01 09:21:06;;;;;;;19.00;10.93;;;10.60;99.90;;;;;;5012409;28;20040;-87
2023/04/01 09:24:06;;;;;;;19.95;11.32;;;;;;;;;;4995105;28;20141;-86
2023/04/01 09:26:51;;;;;;;21.00;12.63;;;;;;;;;;5007869;28;20041;-86
2023/04/01 09:30:04;;;;;;;22.27;12.15;;;10.80;99.90;;;;;;4993691;28;20686;-87
2023/04/01 09:32:52;;;;;;;21.25;12.27;;;;;;;;;;5001111;28;20398;-85
2023/04/01 09:35:49;;;;;;;18.65;11.35;;;;;;;;;;5002543;28;20041;-90
2023/04/01 09:38:40;;;;;;;17.20;11.10;;;;;;;;;;4993556;28;20598;-93
2023/04/01 09:41:31;;;;;;;15.00;9.32;;;;;;;;;;4997722;28;20394;-89
2023/04/01 09:44:22;;;;;;;16.10;10.60;;;;;;;;;;4992042;28;20152;-88
2023/04/01 09:47:36;;;;;;;15.07;9.52;;;10.80;99.90;;;;;;4998214;28;20089;-89
2023/04/01 09:50:41;;;;;;;15.40;10.32;;;;;;;;;;4994193;28;20168;-89
2023/04/01 09:53:47;;;;;;;16.13;9.15;;;;;;;;;;4993590;28;20134;-90
2023/04/01 09:56:50;;;;;;;12.45;8.13;;;11.10;99.90;;;;;;4998514;28;20040;-89
2023/04/01 09:59:37;;;;;;;11.40;8.32;;;;;;;;;;4992260;28;20041;-88
2023/04/01 10:03:02;;;;;;;13.48;9.25;;;11.10;99.90;;;;;;4988810;28;20122;-90
2023/04/01 10:05:56;;;;;;;9.48;6.38;;;;;;;;;;4993255;28;20045;-86
2023/04/01 10:08:52;;;;;;;7.38;4.80;;;;;;;;;;4985852;28;20521;-88
2023/04/01 10:12:12;;;;;;;5.97;4.07;;;10.70;99.90;;;;;;4986516;28;20041;-86
2023/04/01 10:15:11;;;;;;;5.80;4.10;;;;;;;;;;4973498;28;20445;-86
2023/04/01 10:18:16;;;;;;;5.53;4.18;;;10.40;99.90;;;;;;4995853;28;20166;-85
2023/04/01 10:21:18;;;;;;;6.50;4.22;;;;;;;;;;5010645;28;20053;-86
2023/04/01 10:24:22;;;;;;;8.02;4.63;;;10.20;99.90;;;;;;4984043;28;20162;-85
2023/04/01 10:27:22;;;;;;;6.97;4.22;;;;;;;;;;4995381;28;20037;-86
2023/04/01 10:30:06;;;;;;;6.55;3.67;;;;;;;;;;4998005;28;20160;-86
2023/04/01 10:33:38;;;;;;;6.78;4.18;;;10.00;99.90;;;;;;4995375;28;20613;-85
2023/04/01 10:36:48;;;;;;;5.20;3.42;;;10.10;99.90;;;;;;4935760;29;20090;-87
2023/04/01 10:39:38;;;;;;;8.18;4.53;;;;;;;;;;4994643;28;20085;-86
2023/04/01 10:42:41;;;;;;;5.88;4.25;;;10.00;99.90;;;;;;5009544;28;20150;-85
2023/04/01 10:45:32;;;;;;;6.82;4.70;;;;;;;;;;4997483;28;20042;-88
2023/04/01 10:48:26;;;;;;;6.80;4.93;;;;;;;;;;4996808;28;20041;-87
2023/04/01 10:51:25;;;;;;;4.63;3.78;;;9.70;99.90;;;;;;4996268;28;20065;-87
2023/04/01 10:54:15;;;;;;;6.82;4.00;;;;;;;;;;5010748;28;20068;-87
2023/04/01 10:57:00;;;;;;;5.47;4.07;;;;;;;;;;5008570;28;20125;-86
2023/04/01 11:00:05;;;;;;;6.57;4.10;;;9.80;99.90;;;;;;5008239;28;20073;-92
2023/04/01 11:03:12;;;;;;;8.25;4.30;;;9.80;99.90;;;;;;4998065;28;20088;-88
2023/04/01 11:05:56;;;;;;;6.43;4.47;;;;;;;;;;5007808;28;20045;-88
2023/04/01 11:09:11;;;;;;;5.63;3.90;;;9.80;99.90;;;;;;4997123;28;20085;-88
2023/04/01 11:12:10;;;;;;;7.53;4.40;;;;;;;;;;4987717;28;20134;-86
2023/04/01 11:15:15;;;;;;;5.45;3.60;;;9.80;99.90;;;;;;5009376;28;20052;-87
2023/04/01 11:18:15;;;;;;;5.47;3.45;;;;;;;;;;4998952;28;20146;-88
2023/04/01 11:20:59;;;;;;;6.88;3.35;;;;;;;;;;5012180;28;20048;-86
2023/04/01 11:23:51;;;;;;;5.85;3.10;;;;;;;;;;5012265;28;20040;-86
2023/04/01 11:26:56;;;;;;;5.95;3.60;;;9.80;99.90;;;;;;5012484;28;20033;-86
2023/04/01 11:29:59;;;;;;;;;;;9.70;99.90;;;;;;5001695;28;20056;-86
2023/04/01 11:32:54;;;;;;;4.60;3.40;;;9.60;99.90;;;;;;5012998;28;19963;-88
2023/04/01 11:35:41;;;;;;;4.78;3.28;;;;;;;;;;5012775;28;20068;-87
2023/04/01 11:38:35;;;;;;;5.10;3.20;;;;;;;;;;5012827;28;20104;-87
2023/04/01 11:41:38;;;;;;;4.20;2.90;;;;;;;;;;5014001;28;20049;-86
2023/04/01 11:44:28;;;;;;;4.80;3.35;;;9.60;99.90;;;;;;5005734;28;20041;-87
2023/04/01 11:47:25;;;;;;;4.07;2.90;;;9.60;99.90;;;;;;5008778;28;20057;-86
2023/04/01 11:50:21;;;;;;;4.53;3.17;;;;;;;;;;5012134;28;20406;-84
2023/04/01 11:53:26;;;;;;;4.10;3.00;;;9.70;99.90;;;;;;5012099;28;20075;-86
2023/04/01 11:56:22;;;;;;;4.65;3.42;;;;;;;;;;5012303;28;20041;-86
2023/04/01 11:59:14;;;;;;;6.90;3.38;;;;;;;;;;5008693;28;20096;-87
2023/04/01 12:01:59;;;;;;;6.47;3.65;;;;;;;;;;5004923;28;20099;-87
2023/04/01 12:04:54;;;;;;;7.00;3.70;;;;;;;;;;5012482;28;20111;-86
2023/04/01 12:08:15;;;;;;;4.53;3.10;;;9.70;99.90;;;;;;5012206;28;20064;-86
2023/04/01 12:11:23;;;;;;;5.78;3.67;;;9.60;99.90;;;;;;5011185;28;20042;-87
2023/04/01 12:14:20;;;;;;;6.63;3.60;;;;;;;;;;4998184;28;20076;-87
2023/04/01 12:17:32;;;;;;;5.22;4.00;;;9.80;99.90;;;;;;4993061;28;20033;-86
2023/04/01 12:20:19;;;;;;;5.65;3.83;;;;;;;;;;4992770;28;20040;-87
2023/04/01 12:23:04;;;;;;;4.55;3.47;;;;;;;;;;4992951;28;20505;-86
2023/04/01 12:26:33;;;;;;;6.65;3.33;;;9.90;99.90;;;;;;4982005;28;20117;-87
2023/04/01 12:29:36;;;;;;;4.47;3.08;;;9.80;99.90;;;;;;5001667;28;20540;-87
2023/04/01 12:32:58;;;;;;;5.18;3.60;;;9.80;99.90;;;;;;4978375;28;20555;-88
2023/04/01 12:35:46;;;;;;;5.85;2.83;;;;;;;;;;4992972;28;20165;-86
2023/04/01 12:38:52;;;;;;;4.00;2.50;;;;;;;;;;4993558;28;20113;-86
2023/04/01 12:41:56;;;;;;;3.97;3.00;;;9.70;99.90;;;;;;5006274;28;20510;-87
2023/04/01 12:45:09;;;;;;;4.57;2.95;;;9.70;99.90;;;;;;4993517;28;20076;-87
2023/04/01 12:48:11;;;;;;;4.20;2.65;;;9.60;99.90;;;;;;4982153;28;20506;-86
2023/04/01 12:51:02;;;;;;;4.05;3.03;;;;;;;;;;4992616;28;20494;-86
2023/04/01 12:53:56;;;;;;;5.80;3.10;;;;;;;;;;4992563;28;20072;-86
2023/04/01 12:57:18;;;;;;;5.65;3.63;;;9.60;99.90;;;;;;4993762;28;20045;-87
2023/04/01 13:00:27;;;;;;;4.38;3.55;;;9.60;99.90;;;;;;4990935;28;20145;-90
2023/04/01 13:03:35;;;;;;;4.68;3.17;;;9.60;99.90;;;;;;4994320;28;20189;-86
2023/04/01 13:06:42;;;;;;;4.35;3.13;;;9.60;99.90;;;;;;4978467;28;20046;-87
2023/04/01 13:09:39;;;;;;;4.30;3.50;;;9.50;99.90;;;;;;4991858;28;20060;-87
2023/04/01 13:12:24;;;;;;;5.15;3.40;;;;;;;;;;4991850;28;20607;-87
2023/04/01 13:15:15;;;;;;;5.50;3.03;;;;;;;;;;4990301;28;20037;-87
2023/04/01 13:17:59;;;;;;;4.30;3.25;;;;;;;;;;4993077;28;20069;-87
2023/04/01 13:21:13;;;;;;;4.72;3.30;;;9.30;99.90;;;;;;4992182;28;20447;-87
2023/04/01 13:24:10;;;;;;;4.03;3.20;;;;;;;;;;4993181;28;20189;-86
2023/04/01 13:26:55;;;;;;;4.03;3.10;;;;;;;;;;4995171;28;20079;-86
2023/04/01 13:30:01;;;;;;;4.22;2.83;;;;;;;;;;4999560;28;20093;-86
2023/04/01 13:33:01;;;;;;;4.05;2.92;;;;;;;;;;4992798;28;20081;-87
2023/04/01 13:35:51;;;;;;;4.38;2.65;;;;;;;;;;4979256;28;20446;-86
2023/04/01 13:38:58;;;;;;;5.05;3.00;;;9.10;99.90;;;;;;5005156;28;20103;-86
2023/04/01 13:41:49;;;;;;;5.68;2.50;;;;;;;;;;4991643;28;20037;-86
2023/04/01 13:44:41;;;;;;;4.35;2.78;;;9.10;99.90;;;;;;4981498;28;20037;-87
2023/04/01 13:47:39;;;;;;;3.08;2.17;;;;;;;;;;4990904;28;20034;-87
2023/04/01 13:50:32;;;;;;;3.17;2.42;;;8.90;99.90;;;;;;4991049;28;20111;-85
2023/04/01 13:53:44;;;;;;;4.20;2.90;;;9.00;99.90;;;;;;4991953;28;20117;-87
2023/04/01 13:56:38;;;;;;;3.33;2.50;;;8.90;99.90;;;;;;4988339;28;20114;-86
2023/04/01 13:59:32;;;;;;;;;;;8.90;99.90;;;;;;5003902;28;20045;-87
2023/04/01 14:02:35;;;;;;;3.35;2.35;;;;;;;;;;4991100;28;19921;-87
2023/04/01 14:05:25;;;;;;;2.95;2.35;;;;;;;;;;4991820;28;20118;-86
2023/04/01 14:08:10;;;;;;;2.95;2.20;;;;;;;;;;4992321;28;20058;-86
2023/04/01 14:11:04;;;;;;;3.95;2.10;;;;;;;;;;4992269;28;20106;-86
2023/04/01 14:14:30;;;;;;;3.00;2.30;;;8.70;99.90;;;;;;4991421;28;20049;-87
2023/04/01 14:17:24;;;;;;;3.28;2.20;;;;;;;;;;4977663;28;20395;-88
2023/04/01 14:20:27;;;;;;;2.97;1.98;;;8.70;99.90;;;;;;4992533;28;20101;-87
2023/04/01 14:23:17;;;;;;;3.75;2.30;;;;;;;;;;4991317;28;20042;-86
2023/04/01 14:26:05;;;;;;;2.58;1.88;;;;;;;;;;5001411;28;20584;-87
2023/04/01 14:28:56;;;;;;;2.88;1.88;;;;;;;;;;4991798;28;20442;-86
2023/04/01 14:31:48;;;;;;;4.53;2.30;;;;;;;;;;5004814;28;20056;-86
2023/04/01 14:35:10;;;;;;;4.45;2.47;;;8.70;99.90;;;;;;4990870;28;20540;-87
2023/04/01 14:38:35;;;;;;;3.75;2.60;;;8.70;99.90;;;;;;4989561;28;20089;-87
2023/04/01 14:41:31;;;;;;;4.38;2.97;;;;;;;;;;4994776;28;20105;-86
2023/04/01 14:44:49;;;;;;;5.57;3.60;;;8.70;99.90;;;;;;4992021;28;20037;-91
2023/04/01 14:47:34;;;;;;;5.55;3.67;;;;;;;;;;4995619;28;20041;-87
2023/04/01 14:50:26;;;;;;;3.28;2.67;;;8.70;99.90;;;;;;5009743;28;20124;-88
2023/04/01 14:53:25;;;;;;;4.38;2.47;;;8.70;99.90;;;;;;4992163;28;20114;-87
2023/04/01 14:56:10;;;;;;;3.22;2.38;;;;;;;;;;4992357;28;20487;-87
2023/04/01 14:58:58;;;;;;;3.50;2.53;;;8.70;99.90;;;;;;4980908;28;20169;-86
2023/04/01 15:01:43;;;;;;;4.07;2.60;;;;;;;;;;4980593;28;20460;-86
2023/04/01 15:04:30;;;;;;;3.92;2.80;;;;;;;;;;4995009;28;20045;-86
2023/04/01 15:07:44;;;;;;;4.53;2.90;;;8.60;99.90;;;;;;4994174;28;20542;-87
2023/04/01 15:10:54;;;;;;;4.05;3.13;;;8.50;99.90;;;;;;5005813;28;20068;-86
2023/04/01 15:13:39;;;;;;;4.18;2.72;;;;;;;;;;4969899;28;20049;-87
2023/04/01 15:16:24;;;;;;;3.92;2.85;;;;;;;;;;4993822;28;20439;-85
2023/04/01 15:19:14;;;;;;;5.38;2.92;;;;;;;;;;4994248;28;20100;-87
2023/04/01 15:21:59;;;;;;;3.40;2.38;;;;;;;;;;4994267;28;20041;-87
2023/04/01 15:25:20;;;;;;;3.20;2.50;;;8.40;99.90;;;;;;5007054;28;20125;-88
2023/04/01 15:28:30;;;;;;;4.05;2.63;;;;;;;;;;4988562;28;20089;-88
2023/04/01 15:31:35;;;;;;;4.47;2.35;;;;;;;;;;4997651;28;20073;-87
2023/04/01 15:34:30;;;;;;;11.73;3.13;;;;;;;;;;4983198;28;20093;-87
2023/04/01 15:37:21;;;;;;;5.60;3.50;;;;;;;;;;4994351;28;20439;-88
2023/04/01 15:40:29;;;;;;;5.40;3.00;;;;;;;;;;4995527;28;20050;-87
2023/04/01 15:43:21;;;;;;;6.95;3.15;;;;;;;;;;4993986;28;20069;-86
2023/04/01 15:46:20;;;;;;;5.50;3.30;;;;;;;;;;4995272;28;20089;-87
2023/04/01 15:49:07;;;;;;;6.47;3.03;;;;;;;;;;4993507;28;20390;-86
2023/04/01 15:52:25;;;;;;;4.63;3.20;;;8.10;99.90;;;;;;5006376;28;20390;-87
2023/04/01 15:55:18;;;;;;;4.85;3.65;;;;;;;;;;5002835;28;20578;-87
2023/04/01 15:58:18;;;;;;;4.40;2.85;;;;;;;;;;4990524;28;20430;-87
2023/04/01 16:01:14;;;;;;;4.78;3.63;;;;;;;;;;4995412;28;20130;-87
2023/04/01 16:04:08;;;;;;;6.07;3.95;;;;;;;;;;4994220;28;20041;-85
2023/04/01 16:06:52;;;;;;;8.18;4.50;;;;;;;;;;4994231;28;20072;-84
2023/04/01 16:09:54;;;;;;;5.68;3.90;;;7.80;99.90;;;;;;4995585;28;20061;-87
2023/04/01 16:13:15;;;;;;;4.82;3.58;;;7.80;99.90;;;;;;5005795;28;20085;-87
2023/04/01 16:16:27;;;;;;;9.20;5.07;;;7.70;99.90;;;;;;4997813;28;20041;-87
2023/04/01 16:19:34;;;;;;;6.45;4.00;;;;;;;;;;4996657;28;20112;-86
2023/04/01 16:22:54;;;;;;;7.18;4.00;;;7.60;99.90;;;;;;4985182;28;20041;-89
2023/04/01 16:25:50;;;;;;;7.75;3.50;;;;;;;;;;5000636;28;20457;-88
2023/04/01 16:28:39;;;;;;;12.48;4.75;;;;;;;;;;5000942;28;20067;-88
2023/04/01 16:31:45;;;;;;;6.32;4.05;;;7.50;99.90;;;;;;4995847;28;20033;-87
2023/04/01 16:34:37;;;;;;;8.18;4.63;;;7.50;99.90;;;;;;4992933;28;20084;-87
2023/04/01 16:37:50;;;;;;;11.73;5.32;;;7.50;99.90;;;;;;5007787;28;20180;-87
2023/04/01 16:41:16;;;;;;;9.05;5.88;;;7.40;99.90;;;;;;5002788;28;20048;-88
2023/04/01 16:44:11;;;;;;;8.52;5.00;;;;;;;;;;5009060;28;20033;-87
2023/04/01 16:47:05;;;;;;;9.20;5.20;;;;;;;;;;5001132;28;20166;-86
2023/04/01 16:49:59;;;;;;;8.00;4.32;;;7.40;99.90;;;;;;5005923;28;20203;-87
2023/04/01 16:53:04;;;;;;;;;;;7.40;99.90;;;;;;5003687;28;20061;-86
2023/04/01 16:56:00;;;;;;;6.32;3.75;;;;;;;;;;4997073;28;19921;-85
2023/04/01 16:58:59;;;;;;;11.77;5.60;;;7.40;99.90;;;;;;4993113;28;20100;-86
2023/04/01 17:02:01;;;;;;;8.93;4.50;;;7.40;99.90;;;;;;5005908;28;20041;-87
2023/04/01 17:04:55;;;;;;;10.57;5.15;;;;;;;;;;4987253;28;20087;-86
2023/04/01 17:07:46;;;;;;;9.80;5.40;;;;;;;;;;5006317;28;20108;-87
2023/04/01 17:11:04;;;;;;;8.10;3.97;;;7.20;99.90;;;;;;4997303;28;20049;-87